Skip Navigation Links Skip Navigation Links

Current Weather

Heathrow, London

For information only: do not use for flight planning or navigation.
Latest weather
Observation time Sunday, December 17, 2017 10:50 PM GMT
Local time Sunday, December 17, 2017 11:11 PM GMT
Flight conditions Marginal Visual Meteorological Conditions
Winds
Wind direction West-Northwest (290°)
Wind speed 7 mph
Visibility 4.3 mi.
Sky condition
Ceiling 2,600 ft. broken clouds
Cloud layer scattered clouds 2,000 ft.
Cloud layer broken clouds 2,600 ft.
Cloud layer broken clouds 3,600 ft.
Temperature 48°F
Dewpoint 46°F
Altimeter 30.15 in.Hg
Derived measurements
Relative humidity 93%
Wind chill 45°F
Density altitude -828 ft.
Remarks
Fully automated report.
No significant changes expected in the next two hours.
METAR EGLL 172250Z AUTO 29006KT 7000 SCT020 BKN026 BKN036 09/08 Q1021 NOSIG

Settings

Location code

InnerDrive.Weather 4.0.6144.1 Release CLR 4.0.30319.36366
Copyright ©2015 Inner Drive Technology. All rights reserved. Portions Copyright ©1986-2015 David Braverman.

Find weather

Site navigation


Skip Navigation Links

Place info

Page info

PayPal - The safer, easier way to pay online!

Return home.

Copyright ©2017 Inner Drive Technology. Purveyors of fine, hand-crafted computer software. Page printed 2017-12-17T23:11:19 UTC.